ESSA/ARN METAR and TAF weather

Enter ICAO airport designator
Station Type Date Time Source
ESSA METAR 2022/01/29 12:50 UTC NOAA

ESSA 291250Z 18012KT 8000 -RA OVC003 01/01 Q0982 NOSIG


Station Type Date Time Source
ESSA Decoded METAR 2022/01/29 12:50 UTC NOAA

Stockholm / Arlanda, Sweden (ESSA) 59-39N 017-57E 61M
Jan 29, 2022 - 07:50 AM EST / 2022.01.29 1250 UTC
Wind: from the S (180 degrees) at 14 MPH (12 KT):0
Visibility: 4 mile(s):0
Sky conditions: overcast
Weather: light rain
Temperature: 33 F (1 C)
Windchill: 23 F (-5 C):1
Dew Point: 33 F (1 C)
Relative Humidity: 100%
Pressure (altimeter): 29.00 in. Hg (0982 hPa)
ob: ESSA 291250Z 18012KT 8000 -RA OVC003 01/01 Q0982 NOSIG
cycle: 13

Station Type Date Time Source
ESSA TAF 2022/01/29 12:12 UTC NOAA

TAF ESSA 291130Z 2912/3012 19013KT 8000 -RA OVC005
TEMPO 2912/2915 2500 BR OVC003 PROB40 2915/2918 0200 FG VV002
BECMG 2918/2920 22016G26KT BKN012
BECMG 2922/2924 29018G28KT
BECMG 2923/3001 3000 -SN VV016
TEMPO 3001/3012 0600 SN VV004
BECMG 3002/3004 35026G42KT

Example: see airport list